Newington, GA (30446)

10:47 PM EDT on July 28, 2014 (GMT -0400)
Plantation (KJYL) Elev 187 ft | 32.65 °N, 81.60 °W | Change Station

Current weather conditions updated 32 minutes ago

Clear
Clear
75 °F
Feels Like 75 °F
N
0
Wind Variable Wind from North

Tomorrow is forecast to be Cooler than today.

Today
High -- | Low -- °F
--% Chance of Precip.
Yesterday
High -- | Low -- °F
Precip. -- in
6:37 AM 8:27 PM
Waxing Crescent, 4% visible
Pressure 29.88 in
Visibility 10.0 miles
Clouds Clear
Dew Point 73 °F
Humidity 94%
Rainfall 0.00 in
Snow Depth Not available.
UV 0 out of 12
Pollen 5.90 out of 12
Air Quality Not available.
Flu Activity Not available.
METAR KJYL 290215Z AUTO 00000KT 10SM CLR 24/23 A2988 RMK AO2 T02410230

More Conditions Fewer Conditions

Pressure 29.88 in
Visibility 10.0 miles
Clouds Clear
Dew Point 73 °F
Humidity 94%
Rainfall 0.00 in
Snow Depth Not available.
UV 0 out of 12
Pollen 5.90 out of 12
Air Quality Not available.
Flu Activity Not available.
METAR KJYL 290215Z AUTO 00000KT 10SM CLR 24/23 A2988 RMK AO2 T02410230

More Conditions Fewer Conditions

10-Day Weather Forecast

Almanac

Astronomy

Jul. 28, 2014 Rise Set
Actual Time 6:37 AM EDT 8:27 PM EDT
Civil Twilight 6:10 AM EDT 8:54 PM EDT
Nautical Twilight 5:37 AM EDT 9:27 PM EDT
Astronomical Twilight 5:02 AM EDT 10:02 PM EDT
Moon 8:09 AM EDT (7/28) 9:18 PM EDT (7/28)
Length of Visible Light 14h 44m
Length of Day
13h 49m
Tomorrow will be 1m 24s shorter.
Waxing Crescent, 4% of the Moon is Illuminated
Today
Waxing Crescent
Aug 3
First Quarter
Aug 10
Full
Aug 17
Last Quarter
Aug 25
New

Today's Extremes

State Highs State Lows

Community

WunderPhotos

Upload Photos

1,738,587 photos uploaded!

Nearby

Snow Depth

Station Depth Elevation
No new snow has been reported.

Earthquake Activity

City Distance Mag. Time & Date
No recent earthquake activity has been reported nearby.
Minimum magnitude displayed is 2.5.

Coastal Water Temperatures

Place Temperature
No Stations Reporting

Nearby Weather Stations

Station Location Temp. Heat Index Dew Point Humidity Wind Precip. Elev Updated Type
MesoWest YOUMANS FARM , Estill, SC 80 °F 85 °F 76 °F 89% West  at  4 mph 0.02 in / hr 75 ft 9:00 PM EDT MADIS

Show More Stations Show Fewer Stations